sensor_id;sensor_type;location;lat;lon;timestamp;P1;durP1;ratioP1;P2;durP2;ratioP2
40729;SDS011;26418;50.070;8.436;2023-06-10T00:01:58;11.18;;;8.10;;
40729;SDS011;26418;50.070;8.436;2023-06-10T00:04:25;11.23;;;7.90;;
40729;SDS011;26418;50.070;8.436;2023-06-10T00:06:52;12.60;;;8.43;;
40729;SDS011;26418;50.070;8.436;2023-06-10T00:09:18;12.70;;;7.80;;
40729;SDS011;26418;50.070;8.436;2023-06-10T00:11:46;11.68;;;8.80;;
40729;SDS011;26418;50.070;8.436;2023-06-10T00:14:12;11.82;;;8.18;;
40729;SDS011;26418;50.070;8.436;2023-06-10T00:16:38;11.38;;;7.95;;
40729;SDS011;26418;50.070;8.436;2023-06-10T00:19:04;10.55;;;7.82;;
40729;SDS011;26418;50.070;8.436;2023-06-10T00:21:31;10.75;;;8.45;;
40729;SDS011;26418;50.070;8.436;2023-06-10T00:24:05;11.27;;;8.27;;
40729;SDS011;26418;50.070;8.436;2023-06-10T00:26:32;11.70;;;8.88;;
40729;SDS011;26418;50.070;8.436;2023-06-10T00:29:01;18.05;;;8.30;;
40729;SDS011;26418;50.070;8.436;2023-06-10T00:31:27;13.73;;;9.23;;
40729;SDS011;26418;50.070;8.436;2023-06-10T00:33:52;11.18;;;8.27;;
40729;SDS011;26418;50.070;8.436;2023-06-10T00:36:18;11.98;;;8.43;;
40729;SDS011;26418;50.070;8.436;2023-06-10T00:38:44;11.20;;;7.50;;
40729;SDS011;26418;50.070;8.436;2023-06-10T00:41:09;14.13;;;8.35;;
40729;SDS011;26418;50.070;8.436;2023-06-10T00:43:35;13.07;;;7.65;;
40729;SDS011;26418;50.070;8.436;2023-06-10T00:46:01;10.63;;;8.02;;
40729;SDS011;26418;50.070;8.436;2023-06-10T00:48:27;14.77;;;8.85;;
40729;SDS011;26418;50.070;8.436;2023-06-10T00:50:53;9.52;;;7.82;;
40729;SDS011;26418;50.070;8.436;2023-06-10T00:53:19;12.20;;;8.23;;
40729;SDS011;26418;50.070;8.436;2023-06-10T00:55:48;10.27;;;7.22;;
40729;SDS011;26418;50.070;8.436;2023-06-10T00:58:14;9.93;;;7.97;;
40729;SDS011;26418;50.070;8.436;2023-06-10T01:00:40;11.45;;;7.68;;
40729;SDS011;26418;50.070;8.436;2023-06-10T01:03:06;10.18;;;7.43;;
40729;SDS011;26418;50.070;8.436;2023-06-10T01:05:36;12.75;;;8.40;;
40729;SDS011;26418;50.070;8.436;2023-06-10T01:08:18;10.27;;;7.80;;
40729;SDS011;26418;50.070;8.436;2023-06-10T01:13:15;16.05;;;7.80;;
40729;SDS011;26418;50.070;8.436;2023-06-10T01:15:43;11.73;;;7.85;;
40729;SDS011;26418;50.070;8.436;2023-06-10T01:18:09;9.30;;;7.22;;
40729;SDS011;26418;50.070;8.436;2023-06-10T01:20:40;11.40;;;8.43;;
40729;SDS011;26418;50.070;8.436;2023-06-10T01:23:08;12.48;;;7.90;;
40729;SDS011;26418;50.070;8.436;2023-06-10T01:25:38;8.02;;;7.22;;
40729;SDS011;26418;50.070;8.436;2023-06-10T01:28:18;10.77;;;7.07;;
40729;SDS011;26418;50.070;8.436;2023-06-10T01:33:24;9.65;;;7.45;;
40729;SDS011;26418;50.070;8.436;2023-06-10T01:35:58;12.02;;;8.23;;
40729;SDS011;26418;50.070;8.436;2023-06-10T01:38:26;11.97;;;7.10;;
40729;SDS011;26418;50.070;8.436;2023-06-10T01:40:52;15.00;;;6.88;;
40729;SDS011;26418;50.070;8.436;2023-06-10T01:43:20;14.02;;;7.47;;
40729;SDS011;26418;50.070;8.436;2023-06-10T01:45:46;11.00;;;7.88;;
40729;SDS011;26418;50.070;8.436;2023-06-10T01:48:12;11.43;;;7.65;;
40729;SDS011;26418;50.070;8.436;2023-06-10T01:50:38;9.00;;;7.32;;
40729;SDS011;26418;50.070;8.436;2023-06-10T01:53:04;11.57;;;5.95;;
40729;SDS011;26418;50.070;8.436;2023-06-10T01:55:30;10.30;;;7.45;;
40729;SDS011;26418;50.070;8.436;2023-06-10T01:57:56;10.50;;;7.05;;
40729;SDS011;26418;50.070;8.436;2023-06-10T02:00:22;13.48;;;7.75;;
40729;SDS011;26418;50.070;8.436;2023-06-10T02:02:47;14.27;;;7.82;;
40729;SDS011;26418;50.070;8.436;2023-06-10T02:05:13;9.10;;;6.53;;
40729;SDS011;26418;50.070;8.436;2023-06-10T02:07:39;8.23;;;6.68;;
40729;SDS011;26418;50.070;8.436;2023-06-10T02:10:05;9.07;;;6.57;;
40729;SDS011;26418;50.070;8.436;2023-06-10T02:12:31;16.15;;;7.35;;
40729;SDS011;26418;50.070;8.436;2023-06-10T02:14:57;10.98;;;6.88;;
40729;SDS011;26418;50.070;8.436;2023-06-10T02:17:22;11.40;;;6.75;;
40729;SDS011;26418;50.070;8.436;2023-06-10T02:19:48;10.18;;;6.47;;
40729;SDS011;26418;50.070;8.436;2023-06-10T02:22:21;15.07;;;6.75;;
40729;SDS011;26418;50.070;8.436;2023-06-10T02:24:48;9.27;;;6.60;;
40729;SDS011;26418;50.070;8.436;2023-06-10T02:27:15;10.07;;;7.03;;
40729;SDS011;26418;50.070;8.436;2023-06-10T02:29:41;8.73;;;6.00;;
40729;SDS011;26418;50.070;8.436;2023-06-10T02:32:08;9.45;;;6.18;;
40729;SDS011;26418;50.070;8.436;2023-06-10T02:34:34;9.35;;;6.72;;
40729;SDS011;26418;50.070;8.436;2023-06-10T02:36:59;9.95;;;6.93;;
40729;SDS011;26418;50.070;8.436;2023-06-10T02:39:26;11.27;;;6.22;;
40729;SDS011;26418;50.070;8.436;2023-06-10T02:41:53;9.13;;;6.47;;
40729;SDS011;26418;50.070;8.436;2023-06-10T02:44:18;10.27;;;6.47;;
40729;SDS011;26418;50.070;8.436;2023-06-10T02:46:44;9.63;;;6.00;;
40729;SDS011;26418;50.070;8.436;2023-06-10T02:49:11;7.45;;;6.43;;
40729;SDS011;26418;50.070;8.436;2023-06-10T02:51:36;8.82;;;6.97;;
40729;SDS011;26418;50.070;8.436;2023-06-10T02:54:02;9.35;;;6.07;;
40729;SDS011;26418;50.070;8.436;2023-06-10T02:56:28;14.75;;;6.75;;
40729;SDS011;26418;50.070;8.436;2023-06-10T02:58:54;8.18;;;5.88;;
40729;SDS011;26418;50.070;8.436;2023-06-10T03:01:20;7.03;;;6.07;;
40729;SDS011;26418;50.070;8.436;2023-06-10T03:03:46;8.52;;;6.00;;
40729;SDS011;26418;50.070;8.436;2023-06-10T03:06:12;7.80;;;6.45;;
40729;SDS011;26418;50.070;8.436;2023-06-10T03:08:39;9.15;;;5.90;;
40729;SDS011;26418;50.070;8.436;2023-06-10T03:11:05;10.10;;;5.57;;
40729;SDS011;26418;50.070;8.436;2023-06-10T03:13:31;14.32;;;6.32;;
40729;SDS011;26418;50.070;8.436;2023-06-10T03:15:57;6.88;;;6.03;;
40729;SDS011;26418;50.070;8.436;2023-06-10T03:18:25;11.15;;;6.68;;
40729;SDS011;26418;50.070;8.436;2023-06-10T03:20:52;11.27;;;5.97;;
40729;SDS011;26418;50.070;8.436;2023-06-10T03:23:17;8.90;;;5.72;;
40729;SDS011;26418;50.070;8.436;2023-06-10T03:25:44;9.93;;;6.78;;
40729;SDS011;26418;50.070;8.436;2023-06-10T03:28:10;8.98;;;6.10;;
40729;SDS011;26418;50.070;8.436;2023-06-10T03:30:36;7.10;;;6.22;;
40729;SDS011;26418;50.070;8.436;2023-06-10T03:33:02;9.52;;;5.80;;
40729;SDS011;26418;50.070;8.436;2023-06-10T03:35:27;9.75;;;6.80;;
40729;SDS011;26418;50.070;8.436;2023-06-10T03:37:54;12.57;;;6.32;;
40729;SDS011;26418;50.070;8.436;2023-06-10T03:40:20;23.92;;;6.53;;
40729;SDS011;26418;50.070;8.436;2023-06-10T03:42:45;9.55;;;6.15;;
40729;SDS011;26418;50.070;8.436;2023-06-10T03:45:11;8.38;;;5.60;;
40729;SDS011;26418;50.070;8.436;2023-06-10T03:47:37;8.00;;;6.82;;
40729;SDS011;26418;50.070;8.436;2023-06-10T03:50:03;9.98;;;5.97;;
40729;SDS011;26418;50.070;8.436;2023-06-10T03:52:29;8.82;;;6.38;;
40729;SDS011;26418;50.070;8.436;2023-06-10T03:54:55;8.35;;;6.55;;
40729;SDS011;26418;50.070;8.436;2023-06-10T03:57:20;7.75;;;5.45;;
40729;SDS011;26418;50.070;8.436;2023-06-10T03:59:46;7.18;;;6.22;;
40729;SDS011;26418;50.070;8.436;2023-06-10T04:02:12;6.97;;;6.28;;
40729;SDS011;26418;50.070;8.436;2023-06-10T04:04:37;9.20;;;6.32;;
40729;SDS011;26418;50.070;8.436;2023-06-10T04:07:04;10.35;;;6.53;;
40729;SDS011;26418;50.070;8.436;2023-06-10T04:09:31;11.57;;;6.82;;
40729;SDS011;26418;50.070;8.436;2023-06-10T04:11:57;8.48;;;6.57;;
40729;SDS011;26418;50.070;8.436;2023-06-10T04:14:22;7.82;;;5.88;;
40729;SDS011;26418;50.070;8.436;2023-06-10T04:16:48;12.30;;;6.20;;
40729;SDS011;26418;50.070;8.436;2023-06-10T04:19:15;9.20;;;5.82;;
40729;SDS011;26418;50.070;8.436;2023-06-10T04:21:41;10.48;;;6.03;;
40729;SDS011;26418;50.070;8.436;2023-06-10T04:24:07;10.05;;;5.70;;
40729;SDS011;26418;50.070;8.436;2023-06-10T04:26:34;11.02;;;6.32;;
40729;SDS011;26418;50.070;8.436;2023-06-10T04:29:01;8.85;;;6.22;;
40729;SDS011;26418;50.070;8.436;2023-06-10T04:31:26;11.40;;;6.80;;
40729;SDS011;26418;50.070;8.436;2023-06-10T04:33:52;11.88;;;7.03;;
40729;SDS011;26418;50.070;8.436;2023-06-10T04:36:18;10.40;;;6.13;;
40729;SDS011;26418;50.070;8.436;2023-06-10T04:38:44;10.40;;;6.25;;
40729;SDS011;26418;50.070;8.436;2023-06-10T04:41:10;10.23;;;5.97;;
40729;SDS011;26418;50.070;8.436;2023-06-10T04:43:35;7.57;;;5.90;;
40729;SDS011;26418;50.070;8.436;2023-06-10T04:46:01;7.13;;;5.80;;
40729;SDS011;26418;50.070;8.436;2023-06-10T04:48:27;7.72;;;6.10;;
40729;SDS011;26418;50.070;8.436;2023-06-10T04:50:53;8.25;;;6.15;;
40729;SDS011;26418;50.070;8.436;2023-06-10T04:53:18;10.05;;;5.93;;
40729;SDS011;26418;50.070;8.436;2023-06-10T04:55:44;6.75;;;5.95;;
40729;SDS011;26418;50.070;8.436;2023-06-10T04:58:09;8.80;;;6.65;;
40729;SDS011;26418;50.070;8.436;2023-06-10T05:00:35;9.10;;;6.35;;
40729;SDS011;26418;50.070;8.436;2023-06-10T05:03:01;7.05;;;5.75;;
40729;SDS011;26418;50.070;8.436;2023-06-10T05:05:26;8.63;;;5.93;;
40729;SDS011;26418;50.070;8.436;2023-06-10T05:07:52;7.10;;;5.43;;
40729;SDS011;26418;50.070;8.436;2023-06-10T05:10:17;9.38;;;5.57;;
40729;SDS011;26418;50.070;8.436;2023-06-10T05:12:43;6.50;;;5.78;;
40729;SDS011;26418;50.070;8.436;2023-06-10T05:15:08;9.23;;;6.25;;
40729;SDS011;26418;50.070;8.436;2023-06-10T05:17:34;7.30;;;5.95;;
40729;SDS011;26418;50.070;8.436;2023-06-10T05:20:00;7.55;;;6.18;;
40729;SDS011;26418;50.070;8.436;2023-06-10T05:22:26;12.48;;;6.75;;
40729;SDS011;26418;50.070;8.436;2023-06-10T05:24:52;14.50;;;6.28;;
40729;SDS011;26418;50.070;8.436;2023-06-10T05:27:18;9.43;;;6.57;;
40729;SDS011;26418;50.070;8.436;2023-06-10T05:29:44;9.02;;;6.25;;
40729;SDS011;26418;50.070;8.436;2023-06-10T05:32:10;11.90;;;6.03;;
40729;SDS011;26418;50.070;8.436;2023-06-10T05:34:36;16.73;;;6.38;;
40729;SDS011;26418;50.070;8.436;2023-06-10T05:37:02;9.48;;;6.97;;
40729;SDS011;26418;50.070;8.436;2023-06-10T05:39:28;9.48;;;6.88;;
40729;SDS011;26418;50.070;8.436;2023-06-10T05:41:53;9.73;;;6.50;;
40729;SDS011;26418;50.070;8.436;2023-06-10T05:44:19;6.63;;;5.68;;
40729;SDS011;26418;50.070;8.436;2023-06-10T05:46:45;11.95;;;6.25;;
40729;SDS011;26418;50.070;8.436;2023-06-10T05:49:11;7.57;;;6.47;;
40729;SDS011;26418;50.070;8.436;2023-06-10T05:51:36;8.93;;;6.47;;
40729;SDS011;26418;50.070;8.436;2023-06-10T05:54:02;7.78;;;6.15;;
40729;SDS011;26418;50.070;8.436;2023-06-10T05:56:28;8.13;;;5.85;;
40729;SDS011;26418;50.070;8.436;2023-06-10T05:58:54;8.88;;;6.80;;
40729;SDS011;26418;50.070;8.436;2023-06-10T06:01:19;14.35;;;6.75;;
40729;SDS011;26418;50.070;8.436;2023-06-10T06:03:45;9.95;;;6.68;;
40729;SDS011;26418;50.070;8.436;2023-06-10T06:06:11;10.35;;;5.80;;
40729;SDS011;26418;50.070;8.436;2023-06-10T06:08:36;10.63;;;6.68;;
40729;SDS011;26418;50.070;8.436;2023-06-10T06:11:02;9.82;;;6.50;;
40729;SDS011;26418;50.070;8.436;2023-06-10T06:13:27;8.45;;;6.43;;
40729;SDS011;26418;50.070;8.436;2023-06-10T06:15:53;8.60;;;6.50;;
40729;SDS011;26418;50.070;8.436;2023-06-10T06:18:19;8.45;;;6.65;;
40729;SDS011;26418;50.070;8.436;2023-06-10T06:20:44;8.48;;;6.85;;
40729;SDS011;26418;50.070;8.436;2023-06-10T06:23:10;8.93;;;5.95;;
40729;SDS011;26418;50.070;8.436;2023-06-10T06:25:36;9.00;;;6.57;;
40729;SDS011;26418;50.070;8.436;2023-06-10T06:28:05;7.90;;;6.70;;
40729;SDS011;26418;50.070;8.436;2023-06-10T06:30:31;10.85;;;7.30;;
40729;SDS011;26418;50.070;8.436;2023-06-10T06:32:57;10.93;;;6.88;;
40729;SDS011;26418;50.070;8.436;2023-06-10T06:35:23;8.50;;;6.65;;
40729;SDS011;26418;50.070;8.436;2023-06-10T06:37:48;9.63;;;6.82;;
40729;SDS011;26418;50.070;8.436;2023-06-10T06:40:14;7.35;;;6.60;;
40729;SDS011;26418;50.070;8.436;2023-06-10T06:42:40;12.52;;;6.95;;
40729;SDS011;26418;50.070;8.436;2023-06-10T06:45:05;12.27;;;7.28;;
40729;SDS011;26418;50.070;8.436;2023-06-10T06:47:31;11.10;;;7.30;;
40729;SDS011;26418;50.070;8.436;2023-06-10T06:49:57;8.10;;;6.82;;
40729;SDS011;26418;50.070;8.436;2023-06-10T06:52:22;11.40;;;7.03;;
40729;SDS011;26418;50.070;8.436;2023-06-10T06:54:48;9.90;;;6.88;;
40729;SDS011;26418;50.070;8.436;2023-06-10T06:57:14;11.23;;;6.93;;
40729;SDS011;26418;50.070;8.436;2023-06-10T06:59:40;7.85;;;6.65;;
40729;SDS011;26418;50.070;8.436;2023-06-10T07:02:05;13.68;;;6.95;;
40729;SDS011;26418;50.070;8.436;2023-06-10T07:04:31;10.93;;;6.75;;
40729;SDS011;26418;50.070;8.436;2023-06-10T07:06:57;8.13;;;6.40;;
40729;SDS011;26418;50.070;8.436;2023-06-10T07:09:22;9.80;;;6.82;;
40729;SDS011;26418;50.070;8.436;2023-06-10T07:11:48;8.40;;;6.68;;
40729;SDS011;26418;50.070;8.436;2023-06-10T07:14:14;8.88;;;7.95;;
40729;SDS011;26418;50.070;8.436;2023-06-10T07:16:39;11.40;;;7.93;;
40729;SDS011;26418;50.070;8.436;2023-06-10T07:19:05;9.82;;;7.40;;
40729;SDS011;26418;50.070;8.436;2023-06-10T07:21:30;11.00;;;7.30;;
40729;SDS011;26418;50.070;8.436;2023-06-10T07:23:57;8.98;;;7.32;;
40729;SDS011;26418;50.070;8.436;2023-06-10T07:26:23;7.57;;;6.70;;
40729;SDS011;26418;50.070;8.436;2023-06-10T07:28:48;10.60;;;7.60;;
40729;SDS011;26418;50.070;8.436;2023-06-10T07:31:14;10.80;;;8.07;;
40729;SDS011;26418;50.070;8.436;2023-06-10T07:33:40;10.85;;;8.02;;
40729;SDS011;26418;50.070;8.436;2023-06-10T07:36:06;8.00;;;6.97;;
40729;SDS011;26418;50.070;8.436;2023-06-10T07:38:32;11.73;;;8.13;;
40729;SDS011;26418;50.070;8.436;2023-06-10T07:40:59;10.88;;;7.00;;
40729;SDS011;26418;50.070;8.436;2023-06-10T07:43:24;10.05;;;7.07;;
40729;SDS011;26418;50.070;8.436;2023-06-10T07:45:50;8.85;;;7.05;;
40729;SDS011;26418;50.070;8.436;2023-06-10T07:48:16;12.20;;;7.32;;
40729;SDS011;26418;50.070;8.436;2023-06-10T07:50:41;10.15;;;7.88;;
40729;SDS011;26418;50.070;8.436;2023-06-10T07:53:07;14.73;;;7.80;;
40729;SDS011;26418;50.070;8.436;2023-06-10T07:55:32;10.75;;;6.85;;
40729;SDS011;26418;50.070;8.436;2023-06-10T07:57:58;11.00;;;7.80;;
40729;SDS011;26418;50.070;8.436;2023-06-10T08:00:24;8.85;;;7.13;;
40729;SDS011;26418;50.070;8.436;2023-06-10T08:02:49;10.07;;;6.97;;
40729;SDS011;26418;50.070;8.436;2023-06-10T08:05:15;11.70;;;8.00;;
40729;SDS011;26418;50.070;8.436;2023-06-10T08:07:41;8.35;;;7.03;;
40729;SDS011;26418;50.070;8.436;2023-06-10T08:10:07;9.52;;;6.95;;
40729;SDS011;26418;50.070;8.436;2023-06-10T08:12:33;10.45;;;7.68;;
40729;SDS011;26418;50.070;8.436;2023-06-10T08:14:59;11.30;;;7.60;;
40729;SDS011;26418;50.070;8.436;2023-06-10T08:17:25;12.23;;;7.80;;
40729;SDS011;26418;50.070;8.436;2023-06-10T08:19:50;10.93;;;7.65;;
40729;SDS011;26418;50.070;8.436;2023-06-10T08:22:16;9.30;;;7.55;;
40729;SDS011;26418;50.070;8.436;2023-06-10T08:24:41;9.65;;;7.30;;
40729;SDS011;26418;50.070;8.436;2023-06-10T08:27:07;12.65;;;8.13;;
40729;SDS011;26418;50.070;8.436;2023-06-10T08:29:33;9.82;;;7.57;;
40729;SDS011;26418;50.070;8.436;2023-06-10T08:31:58;10.93;;;7.78;;
40729;SDS011;26418;50.070;8.436;2023-06-10T08:34:24;9.85;;;7.53;;
40729;SDS011;26418;50.070;8.436;2023-06-10T08:36:50;9.40;;;7.28;;
40729;SDS011;26418;50.070;8.436;2023-06-10T08:39:18;10.48;;;7.82;;
40729;SDS011;26418;50.070;8.436;2023-06-10T08:41:48;9.57;;;7.90;;
40729;SDS011;26418;50.070;8.436;2023-06-10T08:44:28;11.52;;;7.55;;
40729;SDS011;26418;50.070;8.436;2023-06-10T08:46:58;9.07;;;7.40;;
40729;SDS011;26418;50.070;8.436;2023-06-10T08:49:25;13.77;;;8.27;;
40729;SDS011;26418;50.070;8.436;2023-06-10T08:51:58;8.57;;;7.47;;
40729;SDS011;26418;50.070;8.436;2023-06-10T08:54:28;8.75;;;7.60;;
40729;SDS011;26418;50.070;8.436;2023-06-10T08:56:57;11.52;;;7.43;;
40729;SDS011;26418;50.070;8.436;2023-06-10T08:59:25;7.75;;;6.55;;
40729;SDS011;26418;50.070;8.436;2023-06-10T09:01:51;9.18;;;6.78;;
40729;SDS011;26418;50.070;8.436;2023-06-10T09:04:18;10.80;;;7.20;;
40729;SDS011;26418;50.070;8.436;2023-06-10T09:06:44;11.10;;;7.53;;
40729;SDS011;26418;50.070;8.436;2023-06-10T09:09:11;12.20;;;8.07;;
40729;SDS011;26418;50.070;8.436;2023-06-10T09:11:38;11.77;;;7.30;;
40729;SDS011;26418;50.070;8.436;2023-06-10T09:14:05;10.48;;;7.40;;
40729;SDS011;26418;50.070;8.436;2023-06-10T09:16:32;10.27;;;7.30;;
40729;SDS011;26418;50.070;8.436;2023-06-10T09:18:58;11.35;;;7.72;;
40729;SDS011;26418;50.070;8.436;2023-06-10T09:21:24;11.10;;;8.02;;
40729;SDS011;26418;50.070;8.436;2023-06-10T09:23:50;10.50;;;7.85;;
40729;SDS011;26418;50.070;8.436;2023-06-10T09:26:16;10.25;;;6.63;;
40729;SDS011;26418;50.070;8.436;2023-06-10T09:28:43;7.47;;;6.78;;
40729;SDS011;26418;50.070;8.436;2023-06-10T09:31:09;8.70;;;6.45;;
40729;SDS011;26418;50.070;8.436;2023-06-10T09:33:37;9.95;;;7.60;;
40729;SDS011;26418;50.070;8.436;2023-06-10T09:36:06;8.90;;;7.07;;
40729;SDS011;26418;50.070;8.436;2023-06-10T09:38:32;9.18;;;7.18;;
40729;SDS011;26418;50.070;8.436;2023-06-10T09:40:59;10.95;;;7.20;;
40729;SDS011;26418;50.070;8.436;2023-06-10T09:46:17;8.38;;;7.35;;
40729;SDS011;26418;50.070;8.436;2023-06-10T09:48:44;15.48;;;8.77;;
40729;SDS011;26418;50.070;8.436;2023-06-10T09:51:12;13.75;;;7.72;;
40729;SDS011;26418;50.070;8.436;2023-06-10T09:53:38;13.85;;;7.40;;
40729;SDS011;26418;50.070;8.436;2023-06-10T09:56:04;8.65;;;6.88;;
40729;SDS011;26418;50.070;8.436;2023-06-10T09:58:49;10.95;;;7.90;;
40729;SDS011;26418;50.070;8.436;2023-06-10T10:01:18;13.73;;;7.07;;
40729;SDS011;26418;50.070;8.436;2023-06-10T10:03:51;7.88;;;6.97;;
40729;SDS011;26418;50.070;8.436;2023-06-10T10:06:18;12.75;;;8.20;;
40729;SDS011;26418;50.070;8.436;2023-06-10T10:08:47;10.18;;;7.40;;
40729;SDS011;26418;50.070;8.436;2023-06-10T10:11:16;6.32;;;5.72;;
40729;SDS011;26418;50.070;8.436;2023-06-10T10:13:43;7.88;;;7.03;;
40729;SDS011;26418;50.070;8.436;2023-06-10T10:19:08;8.40;;;6.75;;
40729;SDS011;26418;50.070;8.436;2023-06-10T10:21:43;9.25;;;7.00;;
40729;SDS011;26418;50.070;8.436;2023-06-10T10:24:15;9.73;;;6.38;;
40729;SDS011;26418;50.070;8.436;2023-06-10T10:26:42;9.27;;;7.27;;
40729;SDS011;26418;50.070;8.436;2023-06-10T10:29:14;9.88;;;7.28;;
40729;SDS011;26418;50.070;8.436;2023-06-10T10:31:46;9.18;;;7.20;;
40729;SDS011;26418;50.070;8.436;2023-06-10T10:34:15;9.20;;;6.95;;
40729;SDS011;26418;50.070;8.436;2023-06-10T10:36:44;9.10;;;7.03;;
40729;SDS011;26418;50.070;8.436;2023-06-10T10:39:11;10.48;;;6.80;;
40729;SDS011;26418;50.070;8.436;2023-06-10T10:41:37;10.23;;;8.00;;
40729;SDS011;26418;50.070;8.436;2023-06-10T10:44:05;8.60;;;6.55;;
40729;SDS011;26418;50.070;8.436;2023-06-10T10:46:41;10.38;;;6.30;;
40729;SDS011;26418;50.070;8.436;2023-06-10T10:49:14;10.38;;;6.40;;
40729;SDS011;26418;50.070;8.436;2023-06-10T10:52:14;7.30;;;6.57;;
40729;SDS011;26418;50.070;8.436;2023-06-10T10:54:36;9.23;;;6.72;;
40729;SDS011;26418;50.070;8.436;2023-06-10T11:05:09;10.18;;;6.25;;
40729;SDS011;26418;50.070;8.436;2023-06-10T11:07:36;11.05;;;7.13;;
40729;SDS011;26418;50.070;8.436;2023-06-10T11:15:12;11.20;;;6.90;;
40729;SDS011;26418;50.070;8.436;2023-06-10T11:18:05;10.18;;;5.88;;
40729;SDS011;26418;50.070;8.436;2023-06-10T11:24:00;7.53;;;6.72;;
40729;SDS011;26418;50.070;8.436;2023-06-10T11:29:09;10.50;;;5.65;;
40729;SDS011;26418;50.070;8.436;2023-06-10T11:31:39;7.82;;;5.60;;
40729;SDS011;26418;50.070;8.436;2023-06-10T11:34:06;9.93;;;6.13;;
40729;SDS011;26418;50.070;8.436;2023-06-10T11:36:34;12.80;;;6.75;;
40729;SDS011;26418;50.070;8.436;2023-06-10T11:39:02;7.82;;;6.22;;
40729;SDS011;26418;50.070;8.436;2023-06-10T11:41:30;9.07;;;6.13;;
40729;SDS011;26418;50.070;8.436;2023-06-10T11:43:57;6.82;;;6.07;;
40729;SDS011;26418;50.070;8.436;2023-06-10T11:46:29;9.88;;;6.22;;
40729;SDS011;26418;50.070;8.436;2023-06-10T11:48:56;7.00;;;5.45;;
40729;SDS011;26418;50.070;8.436;2023-06-10T11:51:27;13.77;;;5.95;;
40729;SDS011;26418;50.070;8.436;2023-06-10T11:56:23;6.45;;;5.65;;
40729;SDS011;26418;50.070;8.436;2023-06-10T11:59:04;6.47;;;5.75;;
40729;SDS011;26418;50.070;8.436;2023-06-10T12:01:42;7.75;;;5.78;;
40729;SDS011;26418;50.070;8.436;2023-06-10T12:04:14;6.50;;;5.50;;
40729;SDS011;26418;50.070;8.436;2023-06-10T12:12:03;6.00;;;4.80;;
40729;SDS011;26418;50.070;8.436;2023-06-10T12:20:03;7.35;;;5.00;;
40729;SDS011;26418;50.070;8.436;2023-06-10T12:22:40;7.28;;;5.53;;
40729;SDS011;26418;50.070;8.436;2023-06-10T12:25:07;8.45;;;5.30;;
40729;SDS011;26418;50.070;8.436;2023-06-10T12:27:34;6.80;;;4.93;;
40729;SDS011;26418;50.070;8.436;2023-06-10T12:30:01;7.70;;;5.43;;
40729;SDS011;26418;50.070;8.436;2023-06-10T12:35:02;7.65;;;4.97;;
40729;SDS011;26418;50.070;8.436;2023-06-10T12:37:29;6.18;;;5.28;;
40729;SDS011;26418;50.070;8.436;2023-06-10T12:39:55;9.15;;;6.05;;
40729;SDS011;26418;50.070;8.436;2023-06-10T12:42:24;6.72;;;5.28;;
40729;SDS011;26418;50.070;8.436;2023-06-10T12:44:53;6.63;;;5.72;;
40729;SDS011;26418;50.070;8.436;2023-06-10T12:47:19;9.40;;;5.38;;
40729;SDS011;26418;50.070;8.436;2023-06-10T12:49:45;6.53;;;5.80;;
40729;SDS011;26418;50.070;8.436;2023-06-10T12:52:10;17.58;;;5.90;;
40729;SDS011;26418;50.070;8.436;2023-06-10T12:54:36;8.65;;;5.15;;
40729;SDS011;26418;50.070;8.436;2023-06-10T12:57:02;7.72;;;4.85;;
40729;SDS011;26418;50.070;8.436;2023-06-10T12:59:28;7.95;;;5.43;;
40729;SDS011;26418;50.070;8.436;2023-06-10T13:01:54;8.63;;;5.75;;
40729;SDS011;26418;50.070;8.436;2023-06-10T13:04:20;9.20;;;5.63;;
40729;SDS011;26418;50.070;8.436;2023-06-10T13:06:47;8.75;;;5.32;;
40729;SDS011;26418;50.070;8.436;2023-06-10T13:09:14;8.05;;;6.32;;
40729;SDS011;26418;50.070;8.436;2023-06-10T13:11:41;8.43;;;5.40;;
40729;SDS011;26418;50.070;8.436;2023-06-10T13:14:07;7.38;;;6.00;;
40729;SDS011;26418;50.070;8.436;2023-06-10T13:16:33;7.25;;;5.80;;
40729;SDS011;26418;50.070;8.436;2023-06-10T13:18:59;8.23;;;5.70;;
40729;SDS011;26418;50.070;8.436;2023-06-10T13:21:26;6.15;;;5.55;;
40729;SDS011;26418;50.070;8.436;2023-06-10T13:23:52;13.15;;;5.00;;
40729;SDS011;26418;50.070;8.436;2023-06-10T13:26:17;7.93;;;5.53;;
40729;SDS011;26418;50.070;8.436;2023-06-10T13:28:43;10.13;;;6.43;;
40729;SDS011;26418;50.070;8.436;2023-06-10T13:31:09;6.82;;;5.78;;
40729;SDS011;26418;50.070;8.436;2023-06-10T13:33:35;8.95;;;5.40;;
40729;SDS011;26418;50.070;8.436;2023-06-10T13:36:01;6.80;;;4.72;;
40729;SDS011;26418;50.070;8.436;2023-06-10T13:38:27;6.72;;;5.93;;
40729;SDS011;26418;50.070;8.436;2023-06-10T13:40:52;6.32;;;5.32;;
40729;SDS011;26418;50.070;8.436;2023-06-10T13:43:18;12.40;;;6.22;;
40729;SDS011;26418;50.070;8.436;2023-06-10T13:45:44;6.78;;;5.75;;
40729;SDS011;26418;50.070;8.436;2023-06-10T13:48:10;7.65;;;5.90;;
40729;SDS011;26418;50.070;8.436;2023-06-10T13:50:36;9.43;;;5.53;;
40729;SDS011;26418;50.070;8.436;2023-06-10T13:53:02;6.10;;;5.20;;
40729;SDS011;26418;50.070;8.436;2023-06-10T13:55:28;7.82;;;6.15;;
40729;SDS011;26418;50.070;8.436;2023-06-10T13:57:53;6.13;;;5.53;;
40729;SDS011;26418;50.070;8.436;2023-06-10T14:00:19;10.35;;;6.30;;
40729;SDS011;26418;50.070;8.436;2023-06-10T14:02:44;7.68;;;6.13;;
40729;SDS011;26418;50.070;8.436;2023-06-10T14:05:11;11.00;;;6.63;;
40729;SDS011;26418;50.070;8.436;2023-06-10T14:07:37;11.10;;;6.00;;
40729;SDS011;26418;50.070;8.436;2023-06-10T14:10:02;7.57;;;6.10;;
40729;SDS011;26418;50.070;8.436;2023-06-10T14:12:28;7.70;;;5.88;;
40729;SDS011;26418;50.070;8.436;2023-06-10T14:14:54;5.88;;;5.20;;
40729;SDS011;26418;50.070;8.436;2023-06-10T14:17:20;8.32;;;6.15;;
40729;SDS011;26418;50.070;8.436;2023-06-10T14:19:46;6.90;;;6.05;;
40729;SDS011;26418;50.070;8.436;2023-06-10T14:22:12;8.85;;;5.70;;
40729;SDS011;26418;50.070;8.436;2023-06-10T14:24:37;7.25;;;6.10;;
40729;SDS011;26418;50.070;8.436;2023-06-10T14:27:03;8.70;;;5.65;;
40729;SDS011;26418;50.070;8.436;2023-06-10T14:29:29;7.15;;;5.07;;
40729;SDS011;26418;50.070;8.436;2023-06-10T14:31:56;6.43;;;5.43;;
40729;SDS011;26418;50.070;8.436;2023-06-10T14:34:21;10.13;;;6.15;;
40729;SDS011;26418;50.070;8.436;2023-06-10T14:36:48;9.18;;;5.82;;
40729;SDS011;26418;50.070;8.436;2023-06-10T14:39:14;7.78;;;4.78;;
40729;SDS011;26418;50.070;8.436;2023-06-10T14:41:40;6.35;;;5.10;;
40729;SDS011;26418;50.070;8.436;2023-06-10T14:44:05;7.65;;;4.65;;
40729;SDS011;26418;50.070;8.436;2023-06-10T14:46:31;6.18;;;5.03;;
40729;SDS011;26418;50.070;8.436;2023-06-10T14:48:56;20.48;;;4.53;;
40729;SDS011;26418;50.070;8.436;2023-06-10T14:51:24;6.80;;;4.65;;
40729;SDS011;26418;50.070;8.436;2023-06-10T14:53:49;7.60;;;4.70;;
40729;SDS011;26418;50.070;8.436;2023-06-10T14:56:15;7.22;;;4.90;;
40729;SDS011;26418;50.070;8.436;2023-06-10T14:58:41;8.35;;;5.22;;
40729;SDS011;26418;50.070;8.436;2023-06-10T15:01:06;6.47;;;5.10;;
40729;SDS011;26418;50.070;8.436;2023-06-10T15:03:32;8.63;;;5.03;;
40729;SDS011;26418;50.070;8.436;2023-06-10T15:05:58;5.53;;;5.03;;
40729;SDS011;26418;50.070;8.436;2023-06-10T15:08:25;8.02;;;5.35;;
40729;SDS011;26418;50.070;8.436;2023-06-10T15:10:51;7.57;;;4.75;;
40729;SDS011;26418;50.070;8.436;2023-06-10T15:13:17;5.63;;;5.00;;
40729;SDS011;26418;50.070;8.436;2023-06-10T15:15:42;5.65;;;4.40;;
40729;SDS011;26418;50.070;8.436;2023-06-10T15:18:08;7.30;;;5.07;;
40729;SDS011;26418;50.070;8.436;2023-06-10T15:20:33;6.82;;;4.28;;
40729;SDS011;26418;50.070;8.436;2023-06-10T15:22:59;4.93;;;4.53;;
40729;SDS011;26418;50.070;8.436;2023-06-10T15:25:24;5.57;;;4.57;;
40729;SDS011;26418;50.070;8.436;2023-06-10T15:27:50;7.20;;;4.90;;